Time;durP1;ratioP1;P1;durP2;ratioP2;P2;SDS_P1;SDS_P2;PMS_P1;PMS_P2;Temp;Humidity;BMP_temperature;BMP_pressure;BME280_temperature;BME280_humidity;BME280_pressure;Samples;Min_cycle;Max_cycle;Signal;HPM_P1;HPM_P2
2022/04/06 00:00:48;;;;;;;46.15;5.72;;;;;;;9.39;83.55;100303.16;5068229;28;20036;-37
2022/04/06 00:03:13;;;;;;;46.40;6.22;;;;;;;9.37;83.42;100289.09;5108467;28;20048;-36
2022/04/06 00:05:39;;;;;;;39.25;6.03;;;;;;;9.38;83.68;100291.59;5098826;28;20032;-35
2022/04/06 00:08:04;;;;;;;52.50;7.35;;;;;;;9.38;83.62;100286.22;5098506;28;20028;-36
2022/04/06 00:10:31;;;;;;;47.83;6.45;;;;;;;9.36;83.40;100285.56;5098028;28;20037;-35
2022/04/06 00:12:57;;;;;;;40.85;4.95;;;;;;;9.37;83.37;100278.34;5096980;28;20024;-36
2022/04/06 00:15:22;;;;;;;32.75;5.28;;;;;;;9.38;83.48;100290.78;5098318;28;20058;-35
2022/04/06 00:17:47;;;;;;;39.30;5.18;;;;;;;9.40;83.45;100283.34;5104253;28;20020;-36
2022/04/06 00:20:14;;;;;;;39.35;5.18;;;;;;;9.41;82.91;100285.03;5109814;28;20024;-35
2022/04/06 00:22:40;;;;;;;25.42;5.07;;;;;;;9.44;82.30;100276.56;5097532;28;20051;-39
2022/04/06 00:25:06;;;;;;;32.40;4.68;;;;;;;9.48;82.30;100277.03;5097691;28;20027;-39
2022/04/06 00:27:32;;;;;;;30.23;4.53;;;;;;;9.48;81.88;100274.34;5098019;28;20080;-38
2022/04/06 00:29:57;;;;;;;28.42;4.60;;;;;;;9.50;82.30;100272.31;5097868;28;20036;-37
2022/04/06 00:32:23;;;;;;;37.08;5.20;;;;;;;9.51;81.70;100273.97;5097768;28;20024;-36
2022/04/06 00:37:32;;;;;;;37.30;5.43;;;;;;;9.49;81.40;100270.66;5077907;28;20101;-39
2022/04/06 00:39:58;;;;;;;17.25;3.92;;;;;;;9.48;80.50;100275.19;5096319;28;20025;-36
2022/04/06 00:42:24;;;;;;;23.10;4.35;;;;;;;9.48;80.40;100264.44;5080004;28;20028;-40
2022/04/06 00:44:49;;;;;;;22.33;3.65;;;;;;;9.48;79.87;100252.84;5097122;28;20048;-37
2022/04/06 00:47:14;;;;;;;21.23;3.50;;;;;;;9.48;79.38;100256.38;5097349;28;20049;-36
2022/04/06 00:49:40;;;;;;;21.15;3.50;;;;;;;9.49;78.94;100254.53;5097272;28;20070;-36
2022/04/06 00:52:06;;;;;;;20.95;3.25;;;;;;;9.48;78.67;100258.22;5097325;28;20028;-36
2022/04/06 00:54:33;;;;;;;17.70;3.15;;;;;;;9.44;78.10;100258.59;5097276;28;20088;-37
2022/04/06 00:56:59;;;;;;;13.07;2.78;;;;;;;9.47;78.13;100248.50;5097389;28;20363;-38
2022/04/06 00:59:28;;;;;;;15.73;2.63;;;;;;;9.44;77.84;100244.34;5097354;28;20024;-35
2022/04/06 01:01:56;;;;;;;16.67;3.28;;;;;;;9.43;78.29;100246.22;5096977;28;20050;-38
2022/04/06 01:04:22;;;;;;;;;;;;;;;9.41;78.13;100237.50;5097489;28;20012;-38
2022/04/06 01:06:48;;;;;;;11.10;2.50;;;;;;;9.40;77.57;100229.63;5096413;28;19940;-34
2022/04/06 01:09:18;;;;;;;16.80;3.15;;;;;;;9.40;77.55;100237.69;5097031;28;20034;-36
2022/04/06 01:11:51;;;;;;;18.52;3.17;;;;;;;9.39;77.19;100238.72;5096989;28;20024;-38
2022/04/06 01:14:19;;;;;;;20.55;3.17;;;;;;;9.35;77.06;100237.44;5097872;28;20047;-37
2022/04/06 01:17:04;;;;;;;15.65;3.25;;;;;;;9.34;76.81;100241.94;5101126;28;20345;-34
2022/04/06 01:19:37;;;;;;;16.27;2.95;;;;;;;9.30;77.11;100232.63;5097268;28;20088;-36
2022/04/06 01:22:13;;;;;;;23.23;3.65;;;;;;;9.28;77.46;100226.59;5106405;28;20063;-39
2022/04/06 01:24:39;;;;;;;16.85;2.60;;;;;;;9.28;77.69;100237.34;5103412;28;20016;-38
2022/04/06 01:27:05;;;;;;;21.65;3.97;;;;;;;9.26;77.71;100231.31;5103590;28;20027;-39
2022/04/06 01:29:31;;;;;;;28.00;3.88;;;;;;;9.24;78.24;100236.03;5099897;28;20084;-33
2022/04/06 01:32:06;;;;;;;22.08;4.07;;;;;;;9.19;78.21;100233.94;5097600;28;20025;-37
2022/04/06 01:34:33;;;;;;;17.90;3.20;;;;;;;9.17;78.94;100229.78;5095709;28;20028;-38
2022/04/06 01:36:58;;;;;;;21.05;3.10;;;;;;;9.18;78.82;100234.13;5097139;28;20019;-37
2022/04/06 01:39:23;;;;;;;33.00;3.22;;;;;;;9.13;78.60;100239.22;5102260;28;20036;-35
2022/04/06 01:41:49;;;;;;;25.42;4.55;;;;;;;9.14;78.98;100235.53;5095591;28;20122;-38
2022/04/06 01:44:14;;;;;;;22.70;3.97;;;;;;;9.11;79.04;100231.38;5096319;28;20047;-38
2022/04/06 01:46:39;;;;;;;32.63;5.05;;;;;;;9.08;79.32;100231.72;5096146;28;20031;-34
2022/04/06 01:54:32;;;;;;;22.98;4.10;;;;;;;9.06;79.70;100227.56;5095949;28;20062;-35
2022/04/06 01:56:58;;;;;;;25.85;3.70;;;;;;;9.04;79.61;100219.72;5095230;28;20032;-35
2022/04/06 01:59:23;;;;;;;28.13;3.80;;;;;;;9.04;79.53;100219.72;5095947;28;20032;-36
2022/04/06 02:01:52;;;;;;;23.73;3.42;;;;;;;9.02;78.88;100219.06;5095902;28;20029;-36
2022/04/06 02:04:18;;;;;;;18.20;2.95;;;;;;;9.00;78.69;100218.41;5095901;28;20017;-36
2022/04/06 02:06:43;;;;;;;20.25;3.13;;;;;;;8.99;78.33;100212.22;5074013;28;20090;-35
2022/04/06 02:09:08;;;;;;;22.52;3.50;;;;;;;8.99;78.06;100217.56;5075005;28;20040;-40
2022/04/06 02:11:35;;;;;;;19.80;2.60;;;;;;;8.98;77.79;100215.09;5095717;28;20028;-37
2022/04/06 02:14:01;;;;;;;16.02;2.90;;;;;;;8.98;77.28;100215.94;5095534;28;20028;-36
2022/04/06 02:16:27;;;;;;;23.23;2.92;;;;;;;8.98;76.41;100215.94;5078641;28;20020;-38
2022/04/06 02:18:52;;;;;;;17.27;2.90;;;;;;;8.97;76.06;100208.88;5095655;28;20036;-36
2022/04/06 02:21:17;;;;;;;14.73;2.63;;;;;;;8.96;76.29;100214.44;5078079;28;20028;-35
2022/04/06 02:23:42;;;;;;;14.40;2.47;;;;;;;8.94;75.98;100209.25;5095289;28;20031;-37
2022/04/06 02:26:08;;;;;;;18.10;2.53;;;;;;;8.95;74.46;100210.94;5095627;28;20031;-35
2022/04/06 02:28:33;;;;;;;14.43;3.38;;;;;;;8.97;75.25;100192.78;5095448;28;20028;-36
2022/04/06 02:30:58;;;;;;;18.92;2.88;;;;;;;8.92;74.88;100200.53;5078862;28;20026;-35
2022/04/06 02:33:24;;;;;;;19.30;2.33;;;;;;;8.89;75.04;100189.38;5102792;28;20050;-34
2022/04/06 02:35:49;;;;;;;18.42;2.80;;;;;;;8.86;75.32;100190.56;5095247;28;20021;-36
2022/04/06 02:38:15;;;;;;;12.57;2.00;;;;;;;8.80;75.53;100185.97;5095000;28;20063;-38
2022/04/06 02:40:40;;;;;;;22.13;2.95;;;;;;;8.76;75.79;100174.75;5077539;28;20035;-37
2022/04/06 02:43:05;;;;;;;14.93;1.98;;;;;;;8.72;75.59;100186.06;5080466;28;20032;-34
2022/04/06 02:45:31;;;;;;;18.10;3.08;;;;;;;8.70;75.84;100186.22;5097265;28;20020;-36
2022/04/06 02:47:56;;;;;;;15.40;2.30;;;;;;;8.69;75.99;100171.16;5079483;28;20039;-38
2022/04/06 02:50:21;;;;;;;14.27;2.45;;;;;;;8.69;75.90;100171.16;5095103;28;20044;-35
2022/04/06 02:52:47;;;;;;;16.95;2.42;;;;;;;8.69;76.04;100173.00;5096696;28;20054;-35
2022/04/06 02:55:13;;;;;;;12.40;1.98;;;;;;;8.65;75.92;100171.72;5090861;28;20020;-38
2022/04/06 02:57:39;;;;;;;10.13;2.25;;;;;;;8.62;76.17;100162.19;5091967;28;20036;-38
2022/04/06 03:00:05;;;;;;;17.15;2.20;;;;;;;8.63;75.97;100168.38;5102807;28;20024;-36
2022/04/06 03:02:30;;;;;;;13.43;1.88;;;;;;;8.60;76.57;100158.84;5111087;28;20032;-35
2022/04/06 03:04:56;;;;;;;10.52;2.00;;;;;;;8.61;76.41;100155.19;5095610;28;20020;-35
2022/04/06 03:07:21;;;;;;;10.85;2.40;;;;;;;8.59;76.66;100156.38;5094938;28;20042;-36
2022/04/06 03:09:47;;;;;;;16.05;2.40;;;;;;;8.56;76.74;100146.84;5094986;28;20040;-38
2022/04/06 03:12:12;;;;;;;14.02;2.35;;;;;;;8.59;77.09;100153.69;5095291;28;20036;-37
2022/04/06 03:14:37;;;;;;;11.65;2.30;;;;;;;8.59;76.97;100156.38;5086816;28;20047;-37
2022/04/06 03:17:03;;;;;;;17.15;2.08;;;;;;;8.57;77.17;100143.13;5111558;28;20052;-38
2022/04/06 03:19:29;;;;;;;10.27;2.00;;;;;;;8.55;77.07;100145.16;5112342;28;20035;-38
2022/04/06 03:21:54;;;;;;;14.55;2.13;;;;;;;8.53;76.90;100145.38;5112798;28;20016;-36
2022/04/06 03:24:19;;;;;;;16.90;2.10;;;;;;;8.52;76.81;100146.38;5101473;28;20109;-36
2022/04/06 03:26:45;;;;;;;14.05;2.08;;;;;;;8.53;77.24;100141.84;5102163;28;20028;-36
2022/04/06 03:29:10;;;;;;;21.85;2.00;;;;;;;8.53;77.18;100141.84;5108491;28;20024;-37
2022/04/06 03:31:37;;;;;;;9.93;2.03;;;;;;;8.53;76.36;100126.59;5111061;28;20028;-36
2022/04/06 03:34:03;;;;;;;18.23;2.08;;;;;;;8.55;76.50;100129.06;5103331;28;20058;-36
2022/04/06 03:36:28;;;;;;;20.92;2.10;;;;;;;8.55;76.28;100121.03;5111330;28;20032;-38
2022/04/06 03:38:53;;;;;;;20.38;2.47;;;;;;;8.52;76.25;100111.50;5095298;28;20023;-38
2022/04/06 03:41:18;;;;;;;28.63;3.67;;;;;;;8.51;76.25;100111.72;5095382;28;20024;-38
2022/04/06 03:43:44;;;;;;;18.98;2.63;;;;;;;8.49;76.46;100114.56;5094742;28;20016;-37
2022/04/06 03:46:09;;;;;;;15.38;2.30;;;;;;;8.48;76.73;100107.56;5098853;28;20103;-38
2022/04/06 03:48:35;;;;;;;21.95;2.65;;;;;;;8.43;77.99;100118.00;5095652;28;20059;-36
2022/04/06 03:51:01;;;;;;;20.08;3.13;;;;;;;8.39;79.44;100116.69;5094792;28;20052;-37
2022/04/06 03:53:26;;;;;;;28.35;3.05;;;;;;;8.37;79.95;100110.66;5108282;28;20032;-38
2022/04/06 03:55:51;;;;;;;20.95;3.03;;;;;;;8.34;80.57;100111.84;5102144;28;20110;-38
2022/04/06 03:58:17;;;;;;;33.92;3.55;;;;;;;8.35;80.68;100113.53;5112406;28;20052;-37
2022/04/06 04:00:43;;;;;;;24.60;3.17;;;;;;;8.36;81.06;100093.72;5100716;28;20048;-37
2022/04/06 04:03:09;;;;;;;34.45;3.92;;;;;;;8.36;82.01;100083.00;5101338;28;20037;-37
2022/04/06 04:05:34;;;;;;;33.97;4.03;;;;;;;8.38;82.25;100095.41;5097961;28;20028;-38
2022/04/06 04:08:00;;;;;;;35.42;4.20;;;;;;;8.39;83.07;100080.97;5094547;28;20105;-36
2022/04/06 04:10:25;;;;;;;29.55;3.75;;;;;;;8.39;83.55;100097.94;5108166;28;20040;-35
2022/04/06 04:12:50;;;;;;;38.45;3.83;;;;;;;8.39;83.49;100087.19;5097079;28;20046;-37
2022/04/06 04:15:16;;;;;;;35.50;3.95;;;;;;;8.41;83.19;100087.03;5114597;28;20054;-36
2022/04/06 04:17:41;;;;;;;31.58;3.67;;;;;;;8.44;82.89;100090.16;5099722;28;20031;-39
2022/04/06 04:20:07;;;;;;;31.60;3.50;;;;;;;8.46;82.74;100077.41;5106830;28;20095;-36
2022/04/06 04:22:32;;;;;;;44.15;4.63;;;;;;;8.46;82.44;100084.63;5105243;28;20039;-35
2022/04/06 04:24:57;;;;;;;29.23;3.50;;;;;;;8.48;82.42;100093.31;5113134;28;20025;-37
2022/04/06 04:27:23;;;;;;;32.15;3.75;;;;;;;8.50;81.75;100070.63;5100723;28;20028;-36
2022/04/06 04:29:48;;;;;;;33.70;5.57;;;;;;;8.52;81.36;100065.09;5107173;28;20023;-35
2022/04/06 04:32:16;;;;;;;31.25;3.72;;;;;;;8.54;81.23;100068.41;5104026;28;20020;-37
2022/04/06 04:34:42;;;;;;;31.30;4.00;;;;;;;8.54;80.75;100060.38;5100410;28;20044;-36
2022/04/06 04:37:07;;;;;;;30.98;3.15;;;;;;;8.56;80.33;100061.84;5082820;28;20029;-35
2022/04/06 04:39:32;;;;;;;30.77;3.05;;;;;;;8.57;80.79;100063.50;5111076;28;20048;-34
2022/04/06 04:41:59;;;;;;;23.58;3.00;;;;;;;8.59;81.01;100060.66;5099027;28;20024;-37
2022/04/06 04:44:24;;;;;;;34.63;3.47;;;;;;;8.60;80.89;100062.28;5089077;28;20036;-38
2022/04/06 04:46:50;;;;;;;26.42;3.08;;;;;;;8.62;80.79;100056.75;5099684;28;20031;-36
2022/04/06 04:49:15;;;;;;;24.40;3.38;;;;;;;8.62;80.97;100070.16;5104697;28;20062;-36
2022/04/06 04:51:40;;;;;;;27.67;3.53;;;;;;;8.64;81.01;100073.50;5104579;28;20099;-38
2022/04/06 04:54:05;;;;;;;22.63;2.60;;;;;;;8.65;81.36;100075.16;5100790;28;20021;-37
2022/04/06 04:56:32;;;;;;;28.20;4.28;;;;;;;8.65;81.87;100059.06;5089537;28;20055;-36
2022/04/06 04:58:58;;;;;;;28.75;3.05;;;;;;;8.64;81.59;100068.97;5097284;28;20032;-36
2022/04/06 05:01:24;;;;;;;26.38;3.63;;;;;;;8.62;81.93;100048.72;5098380;28;20039;-35
2022/04/06 05:03:50;;;;;;;36.75;3.35;;;;;;;8.62;82.57;100056.75;5112387;28;20083;-38
2022/04/06 05:06:15;;;;;;;35.38;4.40;;;;;;;8.62;82.36;100054.91;5094947;28;20035;-35
2022/04/06 05:08:41;;;;;;;32.63;5.25;;;;;;;8.59;82.66;100071.38;5083340;28;20088;-37
2022/04/06 05:11:06;;;;;;;27.17;3.95;;;;;;;8.55;82.96;100044.06;5096823;28;20039;-38
2022/04/06 05:13:31;;;;;;;27.63;3.28;;;;;;;8.55;82.83;100041.41;5099513;28;20020;-35
2022/04/06 05:15:57;;;;;;;29.00;3.83;;;;;;;8.55;83.04;100029.84;5107287;28;20048;-36
2022/04/06 05:18:23;;;;;;;32.10;4.63;;;;;;;8.54;82.75;100041.59;5105391;28;21416;-36
2022/04/06 05:20:48;;;;;;;22.10;2.80;;;;;;;8.54;83.26;100044.28;5102342;28;20016;-36
2022/04/06 05:23:15;;;;;;;34.72;3.15;;;;;;;8.54;82.99;100057.69;5097004;28;20036;-39
2022/04/06 05:25:40;;;;;;;29.85;3.08;;;;;;;8.53;82.84;100040.78;5096697;28;20040;-37
2022/04/06 05:28:06;;;;;;;30.33;3.42;;;;;;;8.52;83.03;100049.81;5095893;28;20070;-38
2022/04/06 05:30:33;;;;;;;25.02;3.63;;;;;;;8.55;82.90;100043.25;5078391;28;20028;-36
2022/04/06 05:32:59;;;;;;;25.23;3.88;;;;;;;8.59;82.29;100043.72;5110816;28;20024;-39
2022/04/06 05:35:26;;;;;;;35.75;4.13;;;;;;;8.57;82.23;100051.94;5098388;28;20027;-37
2022/04/06 05:37:51;;;;;;;25.58;3.10;;;;;;;8.54;82.00;100030.88;5103962;28;20012;-38
2022/04/06 05:40:18;;;;;;;29.75;3.60;;;;;;;8.55;81.67;100043.25;5096197;28;20031;-38
2022/04/06 05:42:44;;;;;;;24.48;4.10;;;;;;;8.55;81.72;100032.53;5096266;28;20035;-35
2022/04/06 05:45:10;;;;;;;27.08;3.28;;;;;;;8.59;81.44;100041.03;5081315;28;20147;-37
2022/04/06 05:47:36;;;;;;;25.30;3.17;;;;;;;8.59;80.93;100036.50;5105421;28;20024;-37
2022/04/06 05:50:02;;;;;;;24.30;3.30;;;;;;;8.60;80.53;100027.44;5095413;28;20045;-35
2022/04/06 05:52:28;;;;;;;28.30;3.40;;;;;;;8.62;79.67;100024.56;5096539;28;20032;-37
2022/04/06 05:54:53;;;;;;;26.85;3.42;;;;;;;8.63;79.08;100023.53;5088165;28;20040;-37
2022/04/06 05:57:19;;;;;;;26.77;2.67;;;;;;;8.65;79.07;100033.06;5093809;28;20028;-36
2022/04/06 05:59:45;;;;;;;21.42;3.42;;;;;;;8.69;78.95;100036.19;5097055;28;20024;-37
2022/04/06 06:02:10;;;;;;;23.65;3.17;;;;;;;8.69;78.59;100037.03;5105506;28;20046;-36
2022/04/06 06:04:38;;;;;;;20.15;3.25;;;;;;;8.71;78.12;100042.19;5095642;28;20028;-39
2022/04/06 06:07:05;;;;;;;24.33;2.40;;;;;;;8.69;77.13;100034.34;5094130;28;20041;-38
2022/04/06 06:09:30;;;;;;;18.60;2.45;;;;;;;8.72;76.75;100022.41;5096829;28;20039;-38
2022/04/06 06:11:55;;;;;;;16.65;2.20;;;;;;;8.72;76.58;100023.25;5095418;28;20028;-35
2022/04/06 06:14:21;;;;;;;17.75;2.92;;;;;;;8.75;77.04;100028.22;5100140;28;20032;-35
2022/04/06 06:16:47;;;;;;;19.65;2.83;;;;;;;8.78;76.74;100027.84;5101975;28;20066;-39
2022/04/06 06:19:12;;;;;;;19.38;2.92;;;;;;;8.79;76.74;100024.16;5096227;28;20294;-36
2022/04/06 06:21:38;;;;;;;18.58;2.13;;;;;;;8.81;76.93;100013.22;5087310;28;20039;-36
2022/04/06 06:24:06;;;;;;;20.25;2.60;;;;;;;8.81;77.26;100012.38;5078885;28;20037;-37
2022/04/06 06:26:33;;;;;;;27.20;3.40;;;;;;;8.77;77.53;100020.00;5108896;28;20036;-36
2022/04/06 06:28:58;;;;;;;22.63;4.35;;;;;;;8.78;77.92;100022.47;5099261;28;20024;-40
2022/04/06 06:31:24;;;;;;;22.27;2.42;;;;;;;8.78;78.39;100027.84;5095209;28;20032;-38
2022/04/06 06:33:49;;;;;;;22.10;3.05;;;;;;;8.77;78.78;100025.38;5094432;28;20039;-36
2022/04/06 06:36:15;;;;;;;16.55;2.47;;;;;;;8.71;81.53;100016.19;5094611;28;20025;-38
2022/04/06 06:38:41;;;;;;;20.60;2.47;;;;;;;8.65;83.54;100021.50;5094580;28;20048;-37
2022/04/06 06:41:06;;;;;;;24.00;2.97;;;;;;;8.60;84.36;100010.50;5094556;28;20069;-36
2022/04/06 06:43:31;;;;;;;20.05;2.75;;;;;;;8.57;85.58;100001.81;5093771;28;20040;-35
2022/04/06 06:45:56;;;;;;;18.83;2.92;;;;;;;8.51;86.46;100004.44;5094502;28;20054;-35
2022/04/06 06:48:22;;;;;;;23.60;3.35;;;;;;;8.46;87.36;100005.00;5094905;28;20420;-36
2022/04/06 06:50:47;;;;;;;29.02;3.15;;;;;;;8.46;87.76;100014.91;5094266;28;20110;-37
2022/04/06 06:53:12;;;;;;;36.67;3.80;;;;;;;8.45;88.15;100013.22;5093524;28;20032;-37
2022/04/06 06:55:38;;;;;;;30.52;4.55;;;;;;;8.40;88.38;100016.50;5077042;28;20349;-38
2022/04/06 06:58:03;;;;;;;38.67;3.85;;;;;;;8.42;88.43;100006.38;5094119;28;20036;-38
2022/04/06 07:00:29;;;;;;;26.15;3.22;;;;;;;8.47;88.46;100016.56;5094434;28;20032;-36
2022/04/06 07:02:55;;;;;;;31.45;3.35;;;;;;;8.51;88.14;100010.63;5095511;28;20062;-37
2022/04/06 07:05:20;;;;;;;31.98;3.72;;;;;;;8.57;88.10;99993.78;5114516;28;20064;-37
2022/04/06 07:07:49;;;;;;;17.50;3.10;;;;;;;8.60;88.10;100019.38;5113023;28;20047;-38
2022/04/06 07:10:16;;;;;;;36.95;3.50;;;;;;;8.64;87.55;100015.31;5104535;28;20174;-36
2022/04/06 07:12:41;;;;;;;34.30;3.95;;;;;;;8.68;86.99;99997.81;5094657;28;20047;-38
2022/04/06 07:15:07;;;;;;;27.70;3.85;;;;;;;8.68;88.63;99988.94;5094505;28;20016;-36
2022/04/06 07:17:32;;;;;;;34.28;3.45;;;;;;;8.63;89.88;99996.72;5093192;28;20075;-39
2022/04/06 07:19:58;;;;;;;29.42;3.70;;;;;;;8.46;90.79;100007.69;5094673;28;20035;-35
2022/04/06 07:22:23;;;;;;;32.88;3.92;;;;;;;8.41;92.17;99994.00;5094891;28;20036;-41
2022/04/06 07:24:48;;;;;;;28.63;2.85;;;;;;;8.39;92.32;99993.34;5094097;28;20031;-43
2022/04/06 07:27:14;;;;;;;26.25;3.40;;;;;;;8.40;92.21;100002.22;5094295;28;20067;-39
2022/04/06 07:29:39;;;;;;;27.42;3.10;;;;;;;8.44;91.77;100001.66;5094420;28;20012;-40
2022/04/06 07:32:05;;;;;;;34.13;4.13;;;;;;;8.46;91.88;100022.94;5094216;28;20053;-37
2022/04/06 07:34:31;;;;;;;36.25;3.75;;;;;;;8.52;91.74;99981.94;5097878;28;20059;-39
2022/04/06 07:36:56;;;;;;;43.70;4.15;;;;;;;8.57;91.88;99985.72;5099683;28;20020;-37
2022/04/06 07:39:21;;;;;;;23.75;3.28;;;;;;;8.60;91.04;99978.31;5106589;28;20045;-41
2022/04/06 07:41:47;;;;;;;34.63;4.07;;;;;;;8.64;90.93;99982.31;5098263;28;20032;-38
2022/04/06 07:44:12;;;;;;;43.72;4.70;;;;;;;8.67;91.33;99971.19;5098577;28;20038;-39
2022/04/06 07:46:38;;;;;;;45.10;4.88;;;;;;;8.70;91.04;99962.75;5101140;28;20021;-37
2022/04/06 07:49:06;;;;;;;36.83;3.88;;;;;;;8.75;91.33;99969.19;5098355;28;20036;-36
2022/04/06 07:51:31;;;;;;;38.83;4.68;;;;;;;8.70;90.68;99970.81;5098746;28;20033;-37
2022/04/06 07:53:57;;;;;;;34.55;4.57;;;;;;;8.75;91.52;99957.66;5090335;28;20051;-36
2022/04/06 07:56:22;;;;;;;49.75;6.38;;;;;;;8.76;91.42;99964.66;5085251;28;20024;-39
2022/04/06 07:58:47;;;;;;;41.05;4.70;;;;;;;8.77;91.30;99977.91;5098356;28;20021;-37
2022/04/06 08:01:13;;;;;;;37.85;4.68;;;;;;;8.76;91.29;99975.38;5098145;28;20024;-36
2022/04/06 08:03:38;;;;;;;42.08;4.53;;;;;;;8.71;91.74;99965.22;5097970;28;20028;-45
2022/04/06 08:06:04;;;;;;;42.65;5.20;;;;;;;8.71;91.66;99965.22;5098858;28;20094;-38
2022/04/06 08:08:29;;;;;;;34.25;4.63;;;;;;;8.76;91.99;99961.97;5112154;28;20055;-39
2022/04/06 08:10:54;;;;;;;42.83;5.13;;;;;;;8.79;92.61;99964.28;5117872;28;20020;-39
2022/04/06 08:13:20;;;;;;;37.85;4.60;;;;;;;8.71;93.44;99969.75;5098849;28;20048;-36
2022/04/06 08:15:45;;;;;;;41.97;5.10;;;;;;;8.63;94.53;99954.63;5096928;28;20024;-38
2022/04/06 08:18:11;;;;;;;51.00;4.97;;;;;;;8.60;95.61;99943.47;5096986;28;20035;-41
2022/04/06 08:20:37;;;;;;;44.42;6.47;;;;;;;8.60;96.19;99955.00;5097048;28;20068;-43
2022/04/06 08:23:02;;;;;;;41.45;4.63;;;;;;;8.54;96.35;99956.59;5096825;28;20024;-46
2022/04/06 08:25:27;;;;;;;47.75;6.63;;;;;;;8.58;96.41;99951.69;5096302;28;20033;-43
2022/04/06 08:27:53;;;;;;;35.90;4.72;;;;;;;8.61;96.81;99942.44;5097339;28;20031;-43
2022/04/06 08:30:22;;;;;;;38.90;4.47;;;;;;;8.65;96.79;99941.03;5063289;28;20020;-43
2022/04/06 08:32:48;;;;;;;40.72;5.90;;;;;;;8.61;96.46;99939.75;5097026;28;20112;-44
2022/04/06 08:35:13;;;;;;;42.78;4.93;;;;;;;8.64;96.64;99944.75;5097649;28;20056;-43
2022/04/06 08:37:39;;;;;;;37.95;5.15;;;;;;;8.65;96.17;99930.31;5097484;28;20047;-43
2022/04/06 08:40:09;;;;;;;60.63;7.03;;;;;;;8.68;96.27;99946.00;5096189;28;20037;-42
2022/04/06 08:42:35;;;;;;;47.58;5.07;;;;;;;8.70;95.96;99934.06;5083936;28;20024;-39
2022/04/06 08:45:01;;;;;;;47.05;6.03;;;;;;;8.74;95.83;99937.19;5096680;28;20021;-41
2022/04/06 08:47:29;;;;;;;46.53;5.13;;;;;;;8.77;95.54;99945.69;5097230;28;20124;-41
2022/04/06 08:49:55;;;;;;;36.38;5.43;;;;;;;8.82;94.99;99938.91;5097067;28;20032;-40
2022/04/06 08:52:21;;;;;;;44.80;5.63;;;;;;;8.86;94.82;99932.16;5090772;28;20110;-36
2022/04/06 08:54:47;;;;;;;51.35;5.90;;;;;;;8.95;94.67;99937.19;5096971;28;20084;-37
2022/04/06 08:57:13;;;;;;;61.08;7.38;;;;;;;8.95;94.33;99939.88;5097016;28;20048;-39
2022/04/06 08:59:38;;;;;;;37.22;6.43;;;;;;;8.92;94.45;99950.16;5097399;28;20080;-36
2022/04/06 09:02:03;;;;;;;51.95;5.68;;;;;;;8.97;94.75;99935.13;5097155;28;20127;-38
2022/04/06 09:04:34;;;;;;;57.58;5.75;;;;;;;8.97;94.85;99942.34;5097007;28;20040;-36
2022/04/06 09:07:06;;;;;;;46.97;5.00;;;;;;;9.04;94.76;99934.38;5095530;28;20032;-39
2022/04/06 09:09:32;;;;;;;39.60;4.75;;;;;;;9.06;93.63;99969.88;5116985;28;20044;-41
2022/04/06 09:12:05;;;;;;;39.35;6.13;;;;;;;9.08;93.55;99936.44;5116070;28;20008;-35
2022/04/06 09:14:31;;;;;;;60.20;7.40;;;;;;;9.23;93.79;99939.06;5116729;28;20035;-37
2022/04/06 09:17:02;;;;;;;53.38;6.50;;;;;;;9.28;93.23;99938.47;5116231;28;20020;-38
2022/04/06 09:19:27;;;;;;;47.63;5.13;;;;;;;9.32;92.87;99943.25;5076711;28;20067;-38
2022/04/06 09:21:54;;;;;;;45.30;4.93;;;;;;;9.33;92.59;99933.34;5076437;28;20029;-39
2022/04/06 09:24:20;;;;;;;53.80;5.63;;;;;;;9.35;92.00;99942.03;5086539;28;20108;-37
2022/04/06 09:26:56;;;;;;;46.97;5.53;;;;;;;9.31;92.10;99930.03;5095406;28;20012;-38
2022/04/06 09:29:22;;;;;;;44.28;5.35;;;;;;;9.39;92.21;99943.28;5095637;28;20020;-35
2022/04/06 09:31:48;;;;;;;45.72;5.43;;;;;;;9.50;92.23;99934.69;5094998;28;20035;-37
2022/04/06 09:34:13;;;;;;;53.63;6.88;;;;;;;9.60;91.19;99945.09;5096033;28;20048;-37
2022/04/06 09:36:39;;;;;;;40.55;4.85;;;;;;;9.75;90.73;99953.84;5095851;28;20032;-36
2022/04/06 09:39:05;;;;;;;51.70;6.93;;;;;;;9.61;90.64;99942.22;5096557;28;20040;-36
2022/04/06 09:41:30;;;;;;;41.80;5.18;;;;;;;9.75;90.86;99932.34;5094411;28;20072;-38
2022/04/06 09:44:07;;;;;;;47.13;4.78;;;;;;;9.92;90.20;99937.41;5094703;28;20025;-37
2022/04/06 09:49:21;;;;;;;39.83;4.55;;;;;;;10.13;88.25;99926.50;5099687;28;20051;-39
2022/04/06 09:51:50;;;;;;;30.05;5.95;;;;;;;10.55;87.88;99919.22;5095114;28;20040;-40
2022/04/06 09:54:16;;;;;;;31.67;4.70;;;;;;;10.40;86.62;99902.41;5094563;28;20017;-35
2022/04/06 09:56:42;;;;;;;32.78;4.25;;;;;;;10.16;86.67;99928.78;5094889;28;20306;-39
2022/04/06 09:59:09;;;;;;;36.72;5.20;;;;;;;9.96;87.77;99917.16;5095547;28;20043;-37
2022/04/06 10:01:36;;;;;;;35.13;4.27;;;;;;;9.81;88.11;99901.16;5107294;28;20039;-37
2022/04/06 10:04:06;;;;;;;36.80;5.15;;;;;;;9.72;88.44;99911.25;5115782;28;20031;-41
2022/04/06 10:06:34;;;;;;;47.38;5.40;;;;;;;9.74;88.17;99913.72;5115648;28;20012;-37
2022/04/06 10:09:01;;;;;;;35.95;4.10;;;;;;;9.71;88.25;99904.22;5082361;28;20076;-36
2022/04/06 10:11:27;;;;;;;31.40;3.97;;;;;;;9.63;88.43;99923.19;5101196;28;20039;-41
2022/04/06 10:13:53;;;;;;;45.88;4.93;;;;;;;9.64;88.77;99914.13;5115493;28;20019;-35
2022/04/06 10:16:20;;;;;;;37.00;4.60;;;;;;;9.66;88.84;99906.66;5078867;28;20052;-37
2022/04/06 10:18:46;;;;;;;38.33;4.82;;;;;;;9.63;88.94;99907.06;5095733;28;20067;-40
2022/04/06 10:21:42;;;;;;;29.20;3.47;;;;;;;9.58;88.59;99898.78;5077412;28;20024;-37
2022/04/06 10:24:24;;;;;;;41.45;4.20;;;;;;;9.61;88.57;99898.38;5062329;28;20046;-40
2022/04/06 10:27:08;;;;;;;24.08;3.78;;;;;;;9.58;88.53;99913.03;5078171;28;20040;-39
2022/04/06 10:30:05;;;;;;;29.20;3.75;;;;;;;9.68;87.93;99888.50;5095791;28;20029;-37
2022/04/06 10:32:34;;;;;;;32.35;3.80;;;;;;;9.75;87.36;99889.38;5095410;28;20051;-39
2022/04/06 10:35:24;;;;;;;20.20;3.05;;;;;;;9.82;86.76;99892.91;5095591;28;20032;-36
2022/04/06 10:37:56;;;;;;;27.92;5.53;;;;;;;9.97;86.45;99891.94;5085078;28;20021;-36
2022/04/06 10:40:22;;;;;;;19.17;3.30;;;;;;;9.97;85.56;99867.72;5095044;28;20016;-36
2022/04/06 10:42:47;;;;;;;21.92;2.90;;;;;;;10.06;86.13;99859.28;5094899;28;20044;-38
2022/04/06 10:45:25;;;;;;;14.75;2.67;;;;;;;10.04;85.24;99876.66;5093366;28;20028;-38
2022/04/06 10:48:10;;;;;;;18.02;2.85;;;;;;;10.06;85.57;99874.59;5093215;28;20387;-35
2022/04/06 10:50:36;;;;;;;20.35;3.60;;;;;;;10.00;85.44;99861.94;5087566;28;20044;-37
2022/04/06 10:53:20;;;;;;;18.75;2.95;;;;;;;9.97;85.81;99884.69;5091715;28;20009;-36
2022/04/06 10:56:16;;;;;;;19.38;3.42;;;;;;;9.94;86.25;99855.53;5086061;28;20096;-39
2022/04/06 10:59:05;;;;;;;22.75;2.95;;;;;;;9.86;86.45;99848.47;5093103;28;20020;-37
2022/04/06 11:01:35;;;;;;;15.25;3.10;;;;;;;9.86;86.44;99875.34;5093194;28;20020;-39
2022/04/06 11:04:06;;;;;;;28.45;3.33;;;;;;;9.86;86.59;99866.47;5083655;28;20012;-39
2022/04/06 11:06:49;;;;;;;29.67;3.42;;;;;;;9.83;86.32;99902.63;5094168;28;20081;-36
2022/04/06 11:12:19;;;;;;;19.13;3.35;;;;;;;9.80;87.32;99864.59;5097714;28;20039;-40
2022/04/06 11:14:47;;;;;;;26.27;3.50;;;;;;;9.79;87.07;99841.41;5097265;28;20036;-37
2022/04/06 11:17:34;;;;;;;16.23;3.15;;;;;;;9.75;86.52;99843.69;5097069;28;20036;-39
2022/04/06 11:20:08;;;;;;;20.02;3.53;;;;;;;9.77;86.56;99855.06;5096605;28;20081;-39
2022/04/06 11:22:39;;;;;;;27.50;4.00;;;;;;;9.71;86.78;99849.66;5099546;28;20035;-36
2022/04/06 11:25:07;;;;;;;16.02;2.65;;;;;;;9.68;87.06;99837.44;5102167;28;20028;-37
2022/04/06 11:27:34;;;;;;;19.02;2.60;;;;;;;9.74;86.84;99839.34;5097324;28;20080;-38
2022/04/06 11:30:07;;;;;;;17.27;2.97;;;;;;;9.80;86.71;99840.41;5080275;28;20036;-36
2022/04/06 11:32:36;;;;;;;25.10;3.28;;;;;;;9.92;86.48;99846.84;5099080;28;20023;-37
2022/04/06 11:35:04;;;;;;;18.65;3.35;;;;;;;9.90;85.92;99832.78;5098719;28;20084;-36
2022/04/06 11:37:29;;;;;;;;;;;;;;;9.89;86.05;99840.00;5099097;28;20028;-37
2022/04/06 11:39:57;;;;;;;18.40;3.30;;;;;;;9.91;86.14;99822.88;5098530;28;19908;-37
2022/04/06 11:42:23;;;;;;;14.57;3.00;;;;;;;9.88;86.47;99843.72;5098517;28;20036;-40